Time;durP1;ratioP1;P1;durP2;ratioP2;P2;SDS_P1;SDS_P2;PMS_P1;PMS_P2;Temp;Humidity;BMP_temperature;BMP_pressure;BME280_temperature;BME280_humidity;BME280_pressure;Samples;Min_cycle;Max_cycle;Signal;HPM_P1;HPM_P2
2021/11/05 00:00:24;;;;;;;6.13;5.10;;;6.10;99.90;;;;;;5051019;28;20484;-49
2021/11/05 00:02:54;;;;;;;8.27;5.10;;;6.10;99.90;;;;;;5048140;28;20465;-50
2021/11/05 00:05:21;;;;;;;6.80;5.03;;;6.20;99.90;;;;;;5051219;28;20562;-48
2021/11/05 00:07:48;;;;;;;8.30;5.20;;;6.20;99.90;;;;;;5051249;28;20911;-50
2021/11/05 00:10:17;;;;;;;6.83;4.33;;;6.20;99.90;;;;;;5051216;28;20468;-50
2021/11/05 00:12:45;;;;;;;6.30;4.63;;;6.30;99.90;;;;;;5051360;28;21110;-50
2021/11/05 00:15:13;;;;;;;6.17;4.73;;;6.40;99.90;;;;;;5050445;28;21179;-49
2021/11/05 00:17:41;;;;;;;6.70;4.37;;;6.30;99.90;;;;;;5050774;28;20444;-50
2021/11/05 00:20:09;;;;;;;6.47;4.60;;;6.40;99.90;;;;;;5050601;28;20543;-50
2021/11/05 00:22:36;;;;;;;4.83;3.90;;;6.50;99.90;;;;;;5050973;28;20525;-50
2021/11/05 00:25:06;;;;;;;6.40;4.20;;;6.30;99.90;;;;;;5051167;28;20617;-50
2021/11/05 00:27:34;;;;;;;9.13;4.07;;;6.40;99.90;;;;;;5050829;28;20539;-50
2021/11/05 00:30:01;;;;;;;5.33;4.27;;;6.30;99.90;;;;;;5050917;28;20934;-50
2021/11/05 00:32:28;;;;;;;4.80;4.00;;;6.30;99.90;;;;;;5050768;28;20501;-49
2021/11/05 00:34:55;;;;;;;7.83;4.53;;;6.10;99.90;;;;;;5050495;28;20876;-49
2021/11/05 00:37:24;;;;;;;6.20;4.00;;;6.10;99.90;;;;;;5051138;28;20451;-49
2021/11/05 00:39:51;;;;;;;5.43;4.27;;;6.10;99.90;;;;;;5050905;28;20502;-49
2021/11/05 00:42:19;;;;;;;7.40;4.50;;;6.10;99.90;;;;;;5050577;28;20903;-49
2021/11/05 00:44:47;;;;;;;7.17;4.97;;;6.00;99.90;;;;;;5050909;28;20501;-50
2021/11/05 00:47:15;;;;;;;5.47;4.20;;;5.90;99.90;;;;;;5054557;28;20447;-49
2021/11/05 00:49:42;;;;;;;6.23;4.47;;;5.90;99.90;;;;;;5053959;28;20526;-49
2021/11/05 00:52:10;;;;;;;5.30;4.00;;;6.00;99.90;;;;;;5054338;28;20468;-50
2021/11/05 00:54:37;;;;;;;4.63;3.80;;;6.00;99.90;;;;;;5054524;28;20510;-48
2021/11/05 00:57:04;;;;;;;5.80;4.00;;;6.00;99.90;;;;;;5054092;28;20449;-49
2021/11/05 00:59:31;;;;;;;5.73;3.83;;;6.10;99.90;;;;;;5054575;28;20447;-49
2021/11/05 01:02:00;;;;;;;5.90;4.40;;;6.00;99.90;;;;;;5052966;28;20537;-49
2021/11/05 01:04:27;;;;;;;5.80;4.40;;;6.10;99.90;;;;;;5053723;28;20506;-50
2021/11/05 01:06:54;;;;;;;10.43;4.67;;;6.10;99.90;;;;;;5054175;28;20488;-49
2021/11/05 01:09:21;;;;;;;8.77;4.70;;;5.90;99.90;;;;;;5054272;28;20453;-50
2021/11/05 01:11:48;;;;;;;5.53;3.93;;;5.90;99.90;;;;;;5053652;28;20902;-49
2021/11/05 01:14:15;;;;;;;5.27;4.00;;;5.90;99.90;;;;;;5054109;28;20452;-49
2021/11/05 01:16:43;;;;;;;4.73;3.80;;;6.10;99.90;;;;;;5053593;28;20436;-49
2021/11/05 01:19:11;;;;;;;4.60;3.80;;;6.10;99.90;;;;;;5053836;28;20733;-49
2021/11/05 01:21:38;;;;;;;5.40;3.53;;;6.20;99.90;;;;;;5053612;28;20472;-48
2021/11/05 01:24:06;;;;;;;6.30;4.27;;;6.20;99.90;;;;;;5053676;28;20505;-49
2021/11/05 01:26:33;;;;;;;3.97;3.27;;;6.10;99.90;;;;;;5053629;28;21070;-50
2021/11/05 01:29:00;;;;;;;4.23;3.00;;;6.00;99.90;;;;;;5053523;28;20523;-49
2021/11/05 01:31:27;;;;;;;3.87;3.30;;;6.00;99.90;;;;;;5053283;28;20977;-50
2021/11/05 01:33:54;;;;;;;4.70;3.47;;;5.90;99.90;;;;;;5053708;28;20511;-49
2021/11/05 01:36:23;;;;;;;3.97;3.53;;;5.80;99.90;;;;;;5053270;28;20504;-50
2021/11/05 01:38:50;;;;;;;4.60;3.23;;;5.80;99.90;;;;;;5053361;28;20455;-49
2021/11/05 01:41:17;;;;;;;4.57;3.20;;;5.80;99.90;;;;;;5053100;28;20468;-49
2021/11/05 01:43:46;;;;;;;4.80;3.50;;;5.90;99.90;;;;;;5053443;28;20457;-49
2021/11/05 01:46:14;;;;;;;4.50;3.37;;;6.10;99.90;;;;;;5053614;28;20570;-49
2021/11/05 01:48:41;;;;;;;4.00;3.40;;;5.90;99.90;;;;;;5053203;28;20493;-49
2021/11/05 01:51:08;;;;;;;6.03;3.50;;;5.70;99.90;;;;;;5052630;28;20480;-50
2021/11/05 01:53:36;;;;;;;4.70;3.40;;;5.70;99.90;;;;;;5053329;28;20447;-49
2021/11/05 01:56:04;;;;;;;7.20;4.03;;;5.70;99.90;;;;;;5053302;28;20456;-49
2021/11/05 01:58:31;;;;;;;4.87;3.97;;;5.70;99.90;;;;;;5052521;28;20942;-49
2021/11/05 02:00:58;;;;;;;5.20;3.70;;;5.90;99.90;;;;;;5052784;28;20484;-49
2021/11/05 02:03:25;;;;;;;4.27;3.60;;;5.90;99.90;;;;;;5053216;28;20450;-49
2021/11/05 02:05:53;;;;;;;3.90;3.00;;;5.90;99.90;;;;;;5051751;28;20549;-49
2021/11/05 02:08:21;;;;;;;2.73;2.43;;;6.00;99.90;;;;;;5052930;28;20955;-49
2021/11/05 02:10:50;;;;;;;3.10;2.70;;;5.80;99.90;;;;;;5052502;28;20590;-49
2021/11/05 02:13:20;;;;;;;3.13;2.53;;;5.90;99.90;;;;;;5053103;28;20501;-49
2021/11/05 02:15:47;;;;;;;3.07;2.77;;;5.90;99.90;;;;;;5052972;28;20545;-49
2021/11/05 02:18:15;;;;;;;3.90;3.10;;;5.90;99.90;;;;;;5052880;28;20550;-50
2021/11/05 02:20:42;;;;;;;4.30;3.33;;;5.90;99.90;;;;;;5052317;28;20476;-49
2021/11/05 02:23:11;;;;;;;5.13;3.10;;;5.80;99.90;;;;;;5052709;28;20459;-49
2021/11/05 02:25:38;;;;;;;8.47;3.07;;;5.70;99.90;;;;;;5052462;28;20476;-50
2021/11/05 02:28:05;;;;;;;3.60;3.07;;;5.70;99.90;;;;;;5052738;28;20452;-50
2021/11/05 02:30:32;;;;;;;3.40;3.07;;;5.70;99.90;;;;;;5052486;28;20558;-49
2021/11/05 02:32:59;;;;;;;3.87;3.43;;;5.80;99.90;;;;;;5052563;28;20878;-49
2021/11/05 02:35:26;;;;;;;4.10;3.10;;;5.90;99.90;;;;;;5052449;28;20456;-49
2021/11/05 02:37:53;;;;;;;3.90;3.40;;;5.80;99.90;;;;;;5052709;28;20463;-49
2021/11/05 02:40:22;;;;;;;5.60;3.37;;;5.70;99.90;;;;;;5051862;28;20476;-49
2021/11/05 02:42:49;;;;;;;3.30;3.00;;;5.80;99.90;;;;;;5052583;28;20453;-49
2021/11/05 02:45:16;;;;;;;4.63;3.10;;;5.90;99.90;;;;;;5052163;28;20456;-49
2021/11/05 02:47:44;;;;;;;3.90;2.70;;;6.00;99.90;;;;;;5051997;28;20451;-50
2021/11/05 02:50:14;;;;;;;4.63;2.60;;;5.80;99.90;;;;;;5052160;28;20480;-48
2021/11/05 02:52:41;;;;;;;4.27;3.17;;;5.70;99.90;;;;;;5052296;28;20456;-50
2021/11/05 02:55:10;;;;;;;5.80;3.10;;;5.60;99.90;;;;;;5052127;28;20455;-50
2021/11/05 02:57:38;;;;;;;2.77;2.20;;;5.70;99.90;;;;;;5051641;28;20448;-49
2021/11/05 03:00:08;;;;;;;3.20;2.60;;;5.70;99.90;;;;;;5051685;28;20478;-50
2021/11/05 03:02:35;;;;;;;6.00;2.60;;;5.70;99.90;;;;;;5051590;28;20451;-50
2021/11/05 03:05:02;;;;;;;3.73;2.50;;;5.70;99.90;;;;;;5051596;28;20823;-49
2021/11/05 03:07:29;;;;;;;2.70;2.50;;;5.70;99.90;;;;;;5052098;28;20485;-49
2021/11/05 03:09:56;;;;;;;3.40;2.90;;;5.80;99.90;;;;;;5050390;28;20448;-49
2021/11/05 03:12:26;;;;;;;3.00;2.50;;;5.60;99.90;;;;;;5051784;28;20875;-50
2021/11/05 03:14:54;;;;;;;2.77;2.27;;;5.70;99.90;;;;;;5051415;28;20448;-50
2021/11/05 03:17:21;;;;;;;3.07;2.60;;;5.60;99.90;;;;;;5051571;28;20444;-49
2021/11/05 03:19:49;;;;;;;2.90;2.60;;;5.60;99.90;;;;;;5050866;28;20452;-48
2021/11/05 03:22:16;;;;;;;4.73;2.70;;;5.70;99.90;;;;;;5051616;28;20509;-50
2021/11/05 03:24:43;;;;;;;2.90;2.60;;;5.60;99.90;;;;;;5051409;28;20448;-49
2021/11/05 03:27:10;;;;;;;2.93;2.50;;;5.60;99.90;;;;;;5051619;28;20479;-50
2021/11/05 03:29:37;;;;;;;2.90;2.60;;;5.60;99.90;;;;;;5051648;28;20456;-49
2021/11/05 03:32:07;;;;;;;4.07;2.60;;;5.70;99.90;;;;;;5050792;28;20487;-48
2021/11/05 03:34:34;;;;;;;3.30;2.60;;;5.60;99.90;;;;;;5051788;28;20449;-49
2021/11/05 03:37:01;;;;;;;2.67;2.20;;;5.60;99.90;;;;;;5051669;28;20521;-49
2021/11/05 03:39:28;;;;;;;3.23;2.60;;;5.70;99.90;;;;;;5051285;28;20512;-48
2021/11/05 03:41:55;;;;;;;3.67;2.90;;;5.70;99.90;;;;;;5051222;28;20909;-49
2021/11/05 03:44:22;;;;;;;4.67;2.77;;;5.60;99.90;;;;;;5050984;28;20452;-49
2021/11/05 03:46:49;;;;;;;3.83;3.00;;;5.50;99.90;;;;;;5050904;28;20487;-49
2021/11/05 03:49:17;;;;;;;4.27;3.40;;;5.40;99.90;;;;;;5051153;28;20528;-49
2021/11/05 03:51:44;;;;;;;5.20;3.50;;;5.50;99.90;;;;;;5051253;28;20468;-49
2021/11/05 03:54:11;;;;;;;4.57;2.90;;;5.50;99.90;;;;;;5051093;28;20521;-49
2021/11/05 03:56:38;;;;;;;3.10;2.50;;;5.60;99.90;;;;;;5051469;28;20498;-49
2021/11/05 03:59:05;;;;;;;3.03;2.27;;;5.60;99.90;;;;;;5051548;28;20452;-49
2021/11/05 04:01:32;;;;;;;3.97;2.77;;;5.70;99.90;;;;;;5074040;22;20538;-52
2021/11/05 04:03:59;;;;;;;2.73;2.40;;;5.50;99.90;;;;;;5051285;28;20470;-54
2021/11/05 04:06:28;;;;;;;2.80;2.60;;;5.50;99.90;;;;;;5051525;28;20502;-53
2021/11/05 04:08:55;;;;;;;4.03;2.80;;;5.50;99.90;;;;;;5051351;28;20542;-55
2021/11/05 04:11:22;;;;;;;2.47;2.27;;;5.50;99.90;;;;;;5050919;28;20475;-54
2021/11/05 04:13:50;;;;;;;3.00;2.37;;;5.50;99.90;;;;;;5044260;28;20455;-55
2021/11/05 04:16:17;;;;;;;3.27;2.73;;;5.40;99.90;;;;;;5050741;28;20517;-54
2021/11/05 04:18:44;;;;;;;3.53;2.60;;;5.40;99.90;;;;;;5052419;28;20505;-53
2021/11/05 04:21:12;;;;;;;4.73;2.73;;;5.40;99.90;;;;;;5055114;28;20885;-54
2021/11/05 04:23:40;;;;;;;4.00;2.70;;;5.40;99.90;;;;;;5067122;28;20530;-53
2021/11/05 04:26:08;;;;;;;2.70;2.30;;;5.40;99.90;;;;;;5067620;28;20484;-55
2021/11/05 04:28:35;;;;;;;3.13;2.27;;;5.40;99.90;;;;;;5058316;28;20493;-53
2021/11/05 04:31:02;;;;;;;3.23;2.30;;;5.30;99.90;;;;;;5054681;28;20467;-54
2021/11/05 04:33:31;;;;;;;3.00;2.43;;;5.30;99.90;;;;;;5055171;28;20447;-53
2021/11/05 04:35:59;;;;;;;3.67;2.60;;;5.30;99.90;;;;;;5054777;28;20459;-52
2021/11/05 04:38:26;;;;;;;3.53;2.27;;;5.20;99.90;;;;;;5054969;28;20530;-53
2021/11/05 04:40:55;;;;;;;3.40;2.10;;;5.30;99.90;;;;;;5054636;28;20519;-52
2021/11/05 04:43:23;;;;;;;3.43;2.30;;;5.20;99.90;;;;;;5055039;28;20505;-52
2021/11/05 04:45:50;;;;;;;2.57;2.00;;;5.30;99.90;;;;;;5054819;28;20478;-52
2021/11/05 04:48:17;;;;;;;2.43;2.20;;;5.30;99.90;;;;;;5054789;28;20506;-52
2021/11/05 04:50:44;;;;;;;2.63;2.43;;;5.30;99.90;;;;;;5050996;28;20450;-52
2021/11/05 04:53:12;;;;;;;2.50;2.30;;;5.40;99.90;;;;;;5057598;28;20462;-52
2021/11/05 04:55:39;;;;;;;2.53;2.33;;;5.40;99.90;;;;;;5055500;28;20452;-52
2021/11/05 04:58:08;;;;;;;2.90;2.63;;;5.40;99.90;;;;;;5054385;28;20439;-52
2021/11/05 05:00:36;;;;;;;2.80;2.60;;;5.40;99.90;;;;;;5053581;28;20456;-52
2021/11/05 05:03:04;;;;;;;3.43;2.50;;;5.40;99.90;;;;;;5053998;28;20877;-52
2021/11/05 05:05:32;;;;;;;2.40;1.83;;;5.50;99.90;;;;;;5053693;28;20444;-52
2021/11/05 05:07:59;;;;;;;2.10;1.90;;;5.60;99.90;;;;;;5054234;28;20573;-52
2021/11/05 05:10:27;;;;;;;2.70;2.03;;;5.60;99.90;;;;;;5068145;28;20973;-52
2021/11/05 05:12:54;;;;;;;2.10;1.90;;;5.60;99.90;;;;;;5056734;28;20507;-52
2021/11/05 05:15:23;;;;;;;1.60;1.50;;;5.70;99.90;;;;;;5053587;28;20451;-52
2021/11/05 05:17:50;;;;;;;3.10;2.00;;;5.70;99.90;;;;;;5052650;28;20949;-53
2021/11/05 05:20:19;;;;;;;2.00;1.80;;;5.70;99.90;;;;;;5051736;28;20446;-56
2021/11/05 05:22:47;;;;;;;2.23;1.83;;;5.70;99.90;;;;;;5051996;28;20984;-53
2021/11/05 05:25:15;;;;;;;2.83;2.53;;;5.60;99.90;;;;;;5049773;28;20874;-54
2021/11/05 05:27:44;;;;;;;4.90;2.30;;;5.70;99.90;;;;;;5051204;28;21167;-53
2021/11/05 05:30:13;;;;;;;2.47;2.23;;;5.60;99.90;;;;;;5052184;28;20493;-54
2021/11/05 05:32:42;;;;;;;1.93;1.80;;;5.70;99.90;;;;;;5046405;28;20988;-54
2021/11/05 05:35:09;;;;;;;3.30;2.60;;;5.70;99.90;;;;;;5052957;28;20463;-54
2021/11/05 05:37:36;;;;;;;2.67;2.47;;;5.60;99.90;;;;;;5053444;28;20806;-53
2021/11/05 05:40:04;;;;;;;2.87;2.30;;;5.50;99.90;;;;;;5052171;28;20452;-54
2021/11/05 05:42:31;;;;;;;2.43;2.23;;;5.50;99.90;;;;;;5050957;28;20467;-54
2021/11/05 05:44:58;;;;;;;1.83;1.73;;;5.60;99.90;;;;;;5046020;28;20514;-54
2021/11/05 05:47:28;;;;;;;1.60;1.50;;;5.70;99.90;;;;;;5056133;28;20545;-53
2021/11/05 05:49:56;;;;;;;2.10;1.60;;;5.70;99.90;;;;;;5053398;28;20447;-54
2021/11/05 05:52:24;;;;;;;1.77;1.47;;;5.60;99.90;;;;;;5052818;28;20472;-53
2021/11/05 05:54:51;;;;;;;1.53;1.20;;;5.60;99.90;;;;;;5052906;28;20834;-55
2021/11/05 05:57:19;;;;;;;2.00;1.40;;;5.80;99.90;;;;;;5052324;28;20448;-53
2021/11/05 05:59:46;;;;;;;1.63;1.50;;;5.60;99.90;;;;;;5051601;28;20946;-54
2021/11/05 06:02:13;;;;;;;2.07;1.27;;;5.60;99.90;;;;;;5050475;28;20525;-54
2021/11/05 06:04:40;;;;;;;1.53;1.40;;;5.70;99.90;;;;;;5053218;28;20461;-53
2021/11/05 06:07:09;;;;;;;2.20;2.00;;;5.60;99.90;;;;;;5047647;28;20482;-54
2021/11/05 06:09:36;;;;;;;1.73;1.57;;;5.40;99.90;;;;;;5047103;28;20455;-54
2021/11/05 06:12:04;;;;;;;2.50;1.87;;;5.40;99.90;;;;;;5052080;28;20483;-53
2021/11/05 06:14:31;;;;;;;2.40;1.80;;;5.40;99.90;;;;;;5052431;28;20451;-53
2021/11/05 06:16:59;;;;;;;2.53;1.97;;;5.50;99.90;;;;;;5052589;28;20456;-52
2021/11/05 06:19:26;;;;;;;3.00;2.10;;;5.40;99.90;;;;;;5052885;28;20445;-53
2021/11/05 06:21:53;;;;;;;2.10;1.90;;;5.40;99.90;;;;;;5051746;28;20559;-52
2021/11/05 06:24:22;;;;;;;2.90;2.00;;;5.50;99.90;;;;;;5052365;28;20459;-54
2021/11/05 06:26:50;;;;;;;3.03;1.70;;;5.50;99.90;;;;;;5052738;28;21005;-54
2021/11/05 06:29:17;;;;;;;3.00;2.10;;;5.40;99.90;;;;;;5049706;28;20903;-53
2021/11/05 06:31:44;;;;;;;3.47;2.40;;;5.50;99.90;;;;;;5052134;28;21062;-53
2021/11/05 06:34:11;;;;;;;2.20;2.00;;;5.60;99.90;;;;;;5052753;28;20969;-53
2021/11/05 06:36:38;;;;;;;2.60;2.40;;;5.60;99.90;;;;;;5052763;28;20448;-53
2021/11/05 06:39:06;;;;;;;2.07;1.93;;;5.60;99.90;;;;;;5052443;28;20498;-53
2021/11/05 06:41:34;;;;;;;2.60;1.73;;;5.70;99.90;;;;;;5052255;28;20886;-54
2021/11/05 06:44:01;;;;;;;1.47;1.33;;;5.60;99.90;;;;;;5052622;28;20460;-53
2021/11/05 06:46:28;;;;;;;2.03;1.73;;;5.60;99.90;;;;;;5050459;28;20452;-55
2021/11/05 06:48:55;;;;;;;1.73;1.57;;;5.70;99.90;;;;;;5051785;28;20455;-53
2021/11/05 06:51:22;;;;;;;2.00;1.50;;;5.80;99.90;;;;;;5050075;28;20893;-54
2021/11/05 06:53:49;;;;;;;1.93;1.57;;;5.70;99.90;;;;;;5051073;28;20455;-54
2021/11/05 06:56:18;;;;;;;2.40;1.63;;;5.50;99.90;;;;;;5049994;28;20448;-53
2021/11/05 06:58:49;;;;;;;2.00;1.77;;;5.60;99.90;;;;;;5044411;28;20455;-54
2021/11/05 07:01:17;;;;;;;1.50;1.40;;;5.50;99.90;;;;;;5048804;28;20537;-56
2021/11/05 07:03:44;;;;;;;1.60;1.50;;;5.50;99.90;;;;;;5046928;28;20453;-53
2021/11/05 07:06:11;;;;;;;1.37;1.27;;;5.50;99.90;;;;;;5041083;28;20460;-54
2021/11/05 07:08:38;;;;;;;1.40;1.10;;;5.30;99.90;;;;;;5045454;28;20855;-52
2021/11/05 07:11:05;;;;;;;2.33;1.40;;;5.50;99.90;;;;;;5044712;28;20487;-54
2021/11/05 07:13:33;;;;;;;1.87;1.23;;;5.50;99.90;;;;;;5043667;28;20468;-54
2021/11/05 07:16:03;;;;;;;1.30;1.20;;;5.60;99.90;;;;;;5043271;28;20743;-54
2021/11/05 07:18:32;;;;;;;1.20;1.10;;;5.80;99.90;;;;;;5047409;28;20452;-53
2021/11/05 07:21:03;;;;;;;1.30;1.20;;;5.80;99.90;;;;;;5046894;28;20484;-54
2021/11/05 07:23:31;;;;;;;1.23;1.10;;;5.60;99.90;;;;;;5044050;28;20995;-54
2021/11/05 07:25:59;;;;;;;1.10;1.00;;;5.70;99.90;;;;;;5048449;28;21024;-53
2021/11/05 07:28:26;;;;;;;1.57;1.47;;;5.70;99.90;;;;;;5046035;28;20483;-53
2021/11/05 07:30:54;;;;;;;1.60;1.43;;;5.70;99.90;;;;;;5046179;28;20458;-54
2021/11/05 07:33:23;;;;;;;6.97;1.77;;;5.70;99.90;;;;;;5040400;28;20451;-54
2021/11/05 07:35:50;;;;;;;1.43;1.33;;;5.70;99.90;;;;;;5048852;28;20459;-53
2021/11/05 07:38:19;;;;;;;2.10;1.50;;;5.70;99.90;;;;;;5047309;28;20969;-52
2021/11/05 07:40:46;;;;;;;1.20;1.10;;;5.80;99.90;;;;;;5052621;28;20451;-53
2021/11/05 07:43:14;;;;;;;1.57;1.40;;;5.90;99.90;;;;;;5050501;28;20884;-54
2021/11/05 07:45:41;;;;;;;1.63;1.40;;;5.70;99.90;;;;;;5049049;28;20539;-52
2021/11/05 07:48:08;;;;;;;2.37;1.47;;;5.80;99.90;;;;;;5047520;28;20553;-54
2021/11/05 07:50:37;;;;;;;1.90;1.63;;;5.70;99.90;;;;;;5049861;28;20522;-53
2021/11/05 07:53:05;;;;;;;2.20;1.47;;;5.80;99.90;;;;;;5046217;28;20965;-52
2021/11/05 07:55:33;;;;;;;2.77;1.57;;;5.90;99.90;;;;;;5045241;28;20535;-53
2021/11/05 07:58:00;;;;;;;1.60;1.50;;;6.00;99.90;;;;;;5054190;28;20521;-54
2021/11/05 08:00:28;;;;;;;2.13;1.20;;;5.90;99.90;;;;;;5055177;28;20949;-54
2021/11/05 08:02:55;;;;;;;4.45;1.20;;;6.00;99.90;;;;;;5052264;28;20396;-54
2021/11/05 08:05:22;;;;;;;1.60;1.50;;;6.00;99.90;;;;;;5047319;28;20205;-54
2021/11/05 08:07:51;;;;;;;1.33;1.23;;;6.00;99.90;;;;;;5052956;28;20494;-54
2021/11/05 08:10:20;;;;;;;2.30;1.30;;;6.10;99.90;;;;;;5055105;28;20496;-54
2021/11/05 08:12:48;;;;;;;2.57;1.60;;;6.10;99.90;;;;;;5046018;28;20491;-53
2021/11/05 08:15:16;;;;;;;1.43;1.33;;;6.00;99.90;;;;;;5054334;28;21139;-54
2021/11/05 08:17:43;;;;;;;1.10;1.00;;;6.10;99.90;;;;;;5053564;28;20509;-55
2021/11/05 08:20:12;;;;;;;6.73;1.20;;;6.20;99.90;;;;;;5049232;28;20452;-53
2021/11/05 08:22:39;;;;;;;2.00;1.23;;;6.20;99.90;;;;;;5046571;28;20482;-54
2021/11/05 08:25:08;;;;;;;2.30;1.13;;;6.30;99.90;;;;;;5053637;28;20463;-56
2021/11/05 08:27:36;;;;;;;1.50;1.13;;;6.20;99.90;;;;;;5051129;28;20475;-54
2021/11/05 08:30:05;;;;;;;3.37;1.30;;;6.20;99.90;;;;;;5053933;28;20837;-55
2021/11/05 08:32:32;;;;;;;2.40;1.40;;;6.20;99.90;;;;;;5052491;28;20540;-53
2021/11/05 08:34:59;;;;;;;1.63;1.30;;;6.30;99.90;;;;;;5052329;28;20464;-54
2021/11/05 08:37:29;;;;;;;1.40;1.30;;;6.40;99.90;;;;;;5054348;28;20500;-54
2021/11/05 08:39:56;;;;;;;1.23;1.10;;;6.40;99.90;;;;;;5053975;28;20471;-54
2021/11/05 08:42:26;;;;;;;2.63;1.30;;;6.60;99.90;;;;;;5052251;28;21058;-54
2021/11/05 08:44:54;;;;;;;1.60;1.17;;;6.60;99.90;;;;;;5052986;28;20464;-54
2021/11/05 08:47:25;;;;;;;1.93;1.27;;;6.70;99.90;;;;;;5046658;28;20509;-54
2021/11/05 08:49:53;;;;;;;1.23;1.10;;;6.80;99.90;;;;;;5048352;28;20460;-54
2021/11/05 08:52:24;;;;;;;1.20;1.10;;;6.70;99.90;;;;;;5053075;28;20511;-55
2021/11/05 08:54:51;;;;;;;1.47;1.20;;;6.80;99.90;;;;;;5052383;28;20471;-54
2021/11/05 08:57:18;;;;;;;2.47;1.30;;;6.80;99.90;;;;;;5053383;28;20841;-55
2021/11/05 08:59:46;;;;;;;1.60;1.50;;;6.90;99.90;;;;;;5054345;28;20449;-55
2021/11/05 09:02:13;;;;;;;2.67;1.23;;;6.90;99.90;;;;;;5053219;28;20479;-54
2021/11/05 09:04:40;;;;;;;2.10;1.10;;;7.10;99.90;;;;;;5054354;28;20495;-55
2021/11/05 09:07:07;;;;;;;4.40;1.10;;;7.10;99.90;;;;;;5053488;28;20514;-55
2021/11/05 09:09:34;;;;;;;4.33;1.40;;;7.10;99.90;;;;;;5053986;28;20913;-55
2021/11/05 09:12:01;;;;;;;1.00;0.90;;;7.20;99.90;;;;;;5053959;28;20538;-55
2021/11/05 09:14:28;;;;;;;1.20;1.07;;;7.40;99.90;;;;;;5054061;28;20808;-55
2021/11/05 09:16:56;;;;;;;0.83;0.80;;;7.50;99.90;;;;;;5053758;28;20510;-55
2021/11/05 09:19:23;;;;;;;2.40;1.20;;;7.60;99.90;;;;;;5053937;28;20450;-54
2021/11/05 09:21:50;;;;;;;1.00;0.90;;;7.80;99.90;;;;;;5052567;28;20479;-54
2021/11/05 09:24:17;;;;;;;2.50;0.90;;;7.80;99.90;;;;;;5053924;28;20513;-55
2021/11/05 09:26:44;;;;;;;1.10;1.00;;;7.80;99.90;;;;;;5053916;28;20881;-54
2021/11/05 09:29:13;;;;;;;6.57;1.10;;;7.70;99.90;;;;;;5053846;28;20487;-55
2021/11/05 09:31:40;;;;;;;2.70;2.00;;;7.80;99.90;;;;;;5053258;28;20844;-55
2021/11/05 09:34:08;;;;;;;3.23;2.17;;;8.00;99.90;;;;;;5053416;28;20454;-55
2021/11/05 09:36:35;;;;;;;2.27;1.80;;;8.20;99.90;;;;;;5053268;28;20484;-54
2021/11/05 09:39:03;;;;;;;2.77;1.10;;;8.20;99.90;;;;;;5053772;28;20447;-54
2021/11/05 09:41:30;;;;;;;1.33;1.23;;;8.10;99.90;;;;;;5053213;28;20885;-54
2021/11/05 09:43:57;;;;;;;1.40;1.30;;;8.20;99.90;;;;;;5053657;28;20509;-54
2021/11/05 09:46:24;;;;;;;1.13;1.03;;;8.20;99.90;;;;;;5053343;28;20509;-55
2021/11/05 09:48:51;;;;;;;1.13;1.00;;;8.10;99.90;;;;;;5053087;28;20903;-55
2021/11/05 09:51:20;;;;;;;3.00;1.23;;;8.20;99.90;;;;;;5053375;28;20521;-55
2021/11/05 09:53:47;;;;;;;1.30;1.17;;;8.20;99.90;;;;;;5053322;28;20995;-55
2021/11/05 09:56:17;;;;;;;2.00;1.07;;;8.30;99.90;;;;;;5053299;28;20459;-55
2021/11/05 09:58:45;;;;;;;3.60;1.20;;;8.30;99.90;;;;;;5053114;28;20452;-54
2021/11/05 10:01:13;;;;;;;1.13;1.03;;;8.40;99.90;;;;;;5052228;28;20480;-53
2021/11/05 10:03:41;;;;;;;1.47;1.13;;;8.40;99.90;;;;;;5053570;28;20490;-54
2021/11/05 10:06:09;;;;;;;2.90;1.20;;;8.50;99.90;;;;;;5053096;28;20942;-54
2021/11/05 10:08:38;;;;;;;1.40;1.17;;;8.40;99.90;;;;;;5053002;28;20482;-54
2021/11/05 10:11:24;;;;;;;1.40;1.30;;;8.40;99.90;;;;;;5052894;28;20467;-54
2021/11/05 10:13:51;;;;;;;1.47;1.30;;;8.50;99.90;;;;;;5052763;28;20465;-55
2021/11/05 10:16:20;;;;;;;2.93;1.43;;;8.60;99.90;;;;;;5052770;28;20467;-54
2021/11/05 10:19:00;;;;;;;1.03;1.00;;;8.80;99.90;;;;;;5052362;28;20435;-55
2021/11/05 10:21:28;;;;;;;4.77;1.53;;;8.60;99.90;;;;;;5052590;28;20514;-55
2021/11/05 10:24:07;;;;;;;1.20;1.10;;;8.60;99.90;;;;;;5052813;28;20508;-54
2021/11/05 10:26:35;;;;;;;1.47;1.30;;;8.60;99.90;;;;;;5052761;28;20534;-54
2021/11/05 10:29:03;;;;;;;2.30;1.10;;;8.70;99.90;;;;;;5052439;28;20484;-54
2021/11/05 10:31:31;;;;;;;1.30;1.20;;;8.90;99.90;;;;;;5052305;28;20548;-54
2021/11/05 10:33:58;;;;;;;1.20;1.10;;;8.90;99.90;;;;;;5052654;28;20543;-54
2021/11/05 10:36:28;;;;;;;1.40;1.07;;;8.80;99.90;;;;;;5051974;28;20462;-54
2021/11/05 10:38:59;;;;;;;2.97;1.80;;;8.80;99.90;;;;;;5052488;28;20494;-54
2021/11/05 10:41:27;;;;;;;3.90;3.20;;;8.90;99.90;;;;;;5051987;28;20515;-55
2021/11/05 10:43:56;;;;;;;1.70;1.60;;;8.90;99.90;;;;;;5052026;28;20505;-54
2021/11/05 10:46:27;;;;;;;1.47;1.30;;;8.90;99.90;;;;;;5052209;28;20459;-55
2021/11/05 10:48:57;;;;;;;1.33;1.23;;;9.00;99.90;;;;;;5052488;28;20557;-54
2021/11/05 10:51:26;;;;;;;1.27;1.17;;;9.10;99.90;;;;;;5052013;28;21030;-54
2021/11/05 10:53:53;;;;;;;2.43;1.33;;;9.20;99.90;;;;;;5052221;28;20456;-55
2021/11/05 10:56:25;;;;;;;10.10;5.57;;;9.40;99.90;;;;;;5052756;28;20456;-56
2021/11/05 10:58:57;;;;;;;4.47;3.27;;;9.50;99.90;;;;;;5052329;28;20475;-54
2021/11/05 11:01:27;;;;;;;4.20;2.90;;;9.70;99.90;;;;;;5051607;28;20486;-54
2021/11/05 11:03:57;;;;;;;4.50;2.60;;;9.80;99.90;;;;;;5052035;28;20448;-54
2021/11/05 11:06:26;;;;;;;2.07;1.60;;;10.00;99.90;;;;;;5051660;28;20460;-55
2021/11/05 11:08:55;;;;;;;2.73;1.70;;;10.10;99.90;;;;;;5051929;28;20518;-54
2021/11/05 11:11:26;;;;;;;1.87;1.63;;;10.10;99.90;;;;;;5050945;28;20907;-56
2021/11/05 11:13:56;;;;;;;2.17;1.40;;;10.00;99.90;;;;;;5032250;28;20449;-56
2021/11/05 11:16:26;;;;;;;2.13;1.63;;;10.10;99.90;;;;;;5036782;28;20448;-54
2021/11/05 11:18:59;;;;;;;2.27;1.57;;;9.90;99.90;;;;;;5051740;28;20447;-55
2021/11/05 11:21:30;;;;;;;1.40;1.30;;;9.70;99.90;;;;;;5050597;28;20479;-55
2021/11/05 11:23:58;;;;;;;1.60;1.50;;;9.70;99.90;;;;;;5036593;28;20459;-54
2021/11/05 11:26:27;;;;;;;2.23;1.63;;;9.80;99.90;;;;;;5051046;28;20969;-55
2021/11/05 11:28:55;;;;;;;1.83;1.73;;;10.00;99.90;;;;;;5051581;28;20533;-55
2021/11/05 11:31:22;;;;;;;1.40;1.10;;;10.10;99.90;;;;;;5049395;28;20471;-55
2021/11/05 11:33:50;;;;;;;1.20;1.10;;;10.00;99.90;;;;;;5051280;28;20452;-55
2021/11/05 11:36:18;;;;;;;2.00;1.17;;;9.90;99.90;;;;;;5051193;28;20482;-55
2021/11/05 11:38:49;;;;;;;1.83;1.30;;;9.80;99.90;;;;;;5051156;28;20491;-55
2021/11/05 11:41:17;;;;;;;4.17;1.67;;;10.00;99.90;;;;;;5051449;28;20867;-54
2021/11/05 11:43:48;;;;;;;1.27;1.17;;;10.10;99.90;;;;;;5050719;28;20463;-55
2021/11/05 11:46:15;;;;;;;1.73;1.30;;;9.70;99.90;;;;;;5051536;28;20447;-54
2021/11/05 11:48:48;;;;;;;1.83;1.30;;;9.80;99.90;;;;;;5050935;28;20505;-55
2021/11/05 11:51:31;;;;;;;2.03;1.20;;;9.80;99.90;;;;;;5049789;28;20483;-54
2021/11/05 11:54:03;;;;;;;3.53;1.20;;;9.80;99.90;;;;;;5051023;28;20447;-55
2021/11/05 11:56:34;;;;;;;1.40;1.30;;;9.80;99.90;;;;;;5051372;28;20798;-55
2021/11/05 11:59:03;;;;;;;0.80;0.80;;;9.90;99.90;;;;;;5051304;28;20938;-55
2021/11/05 12:01:38;;;;;;;1.27;0.87;;;10.10;99.90;;;;;;5050871;28;20479;-55
2021/11/05 12:04:07;;;;;;;1.20;1.00;;;10.20;99.90;;;;;;5051260;28;20460;-54
2021/11/05 12:07:01;;;;;;;0.70;0.70;;;10.30;99.90;;;;;;5051434;28;20479;-55
2021/11/05 12:09:32;;;;;;;1.23;1.00;;;10.40;99.90;;;;;;5048898;28;20533;-54
2021/11/05 12:12:33;;;;;;;1.00;1.00;;;10.50;99.90;;;;;;5050289;28;20471;-55
2021/11/05 12:15:17;;;;;;;1.10;0.90;;;10.30;99.90;;;;;;5051224;28;20439;-54
2021/11/05 12:18:07;;;;;;;1.17;1.00;;;10.50;99.90;;;;;;5051321;28;20439;-54
2021/11/05 12:20:38;;;;;;;1.00;0.90;;;10.30;99.90;;;;;;5050559;28;20875;-54
2021/11/05 12:23:16;;;;;;;1.10;1.00;;;10.30;99.90;;;;;;5051119;28;20448;-54
2021/11/05 12:25:44;;;;;;;2.10;1.20;;;10.40;99.90;;;;;;5051215;28;20953;-54
2021/11/05 12:28:16;;;;;;;2.30;1.20;;;10.40;99.90;;;;;;5050487;28;20440;-54
2021/11/05 12:30:45;;;;;;;1.27;1.17;;;10.60;99.90;;;;;;5050735;28;20450;-55
2021/11/05 12:33:30;;;;;;;1.40;1.30;;;10.50;99.90;;;;;;5050758;28;20455;-54
2021/11/05 12:35:59;;;;;;;1.40;1.10;;;10.50;99.90;;;;;;5050260;28;20459;-55
2021/11/05 12:38:26;;;;;;;3.03;1.23;;;10.40;99.90;;;;;;5050932;28;20505;-55
2021/11/05 12:40:57;;;;;;;1.73;1.20;;;10.40;99.90;;;;;;5049103;28;20478;-55
2021/11/05 12:43:46;;;;;;;1.60;1.50;;;10.50;99.90;;;;;;5053359;28;20443;-54
2021/11/05 12:46:18;;;;;;;1.30;0.97;;;10.60;99.90;;;;;;5054866;28;20508;-54
2021/11/05 12:48:48;;;;;;;1.40;1.30;;;10.60;99.90;;;;;;5054101;28;20475;-55
2021/11/05 12:51:17;;;;;;;1.30;1.20;;;10.70;99.90;;;;;;5053238;28;20503;-55
2021/11/05 12:53:45;;;;;;;1.67;1.47;;;10.60;99.90;;;;;;5054465;28;20452;-55
2021/11/05 12:56:17;;;;;;;2.30;1.80;;;10.60;99.90;;;;;;5054293;28;20483;-55
2021/11/05 12:58:44;;;;;;;1.83;1.73;;;10.50;99.90;;;;;;5054485;28;20444;-55
2021/11/05 13:01:15;;;;;;;3.70;1.77;;;10.30;99.90;;;;;;5053562;28;20475;-54